< < Back
Terminal Aerodrome Forecast


Current Version              Previous Versions:   1  2  3  4  5  6  7  8  9  

Terminal Aerodrome Forecast

222
FTUS42 KGSP 282335
TAFAND
TAF
KAND 282335Z 2900/2924 06007KT P6SM FEW070 SCT250
     FM291400 05010KT P6SM FEW060 BKN250
     FM291700 07011KT P6SM SCT060 BKN250=



Latest METAR

310
SAUS70 KWBC 291400 RRB
MTRAND
METAR KAND 291356Z AUTO 03008KT 10SM CLR 28/20 A3017 RMK AO2 SLP204
T02780200


USA.gov is the U.S. government's official web portal to all federal, state and local government web resources and services.